Tiempo atmosférico en la estación meteorológica de Villanueva Del Fresno, Badajoz (247 m.)



Fecha
DESCASC
Temp. máxima en grados centígrados (hora)
DESCASC
Temp. mínima en grados centígrados (hora)
DESCASC
Temp. media en grados centígrados
DESCASC
Racha de viento máxima en m/sg (hora)
DESCASC
Velocidad máxima media en intervalos de 10 minutos(hora)
DESCASC
Precipitaciones diarias en mm
DESCASC
Precipitaciones de 00:00 a 06:00 en mm
DESCASC
Precipitaciones de 06:00 a 12:00 en mm
DESCASC
Precipitaciones de 12:00 a 18:00 en mm
DESCASC
Precipitaciones de 18:00 a 24:00 en mm
DESCASC
05-12-2019 15.5 (15:30) 7.2 (08:40) 11.3 11.11 (16:50) 6.67 (16:50) 0 0 0 0 0
04-12-2019 13.5 (16:20) 4.9 (07:40) 9.2 5.56 (16:20) 3.89 (16:30) 0 0 0 0 0
03-12-2019 15.1 (15:20) 7.3 (00:00) 11.2 10.28 (11:10) 6.94 (11:20) 0 0 0 0 0
02-12-2019 14 (15:10) 8.2 (00:00) 11.1 14.44 (16:40) 9.17 (16:30) 0 0 0 0 0
01-12-2019 14 (14:20) 9.2 (00:00) 11.6 12.22 (15:30) 7.5 (15:30) 4.2 0 0.8 2 1.4
30-11-2019 16.9 (15:10) 11.4 (00:00) 14.1 10 (17:50) 6.67 (16:50) 1.4 0 0 0 1.4
29-11-2019 17.7 (15:50) 12.1 (00:00) 14.9 5.83 (13:50) 4.17 (14:20) 0 0 0 0 0
28-11-2019 16.6 (15:30) 11.2 (00:00) 13.9 6.67 (12:50) 5 (12:40) 0 0 0 0 0
27-11-2019 17.3 (15:50) 11.9 (00:00) 14.6 8.06 (16:50) 5.28 (16:50) 0.8 0.8 0 0 0
26-11-2019 18.4 (16:20) 13 (00:00) 15.7 12.22 (15:30) 8.89 (15:30) 4.2 0.8 0 1.4 2
25-11-2019 18.6 (15:30) 12 (00:00) 15.3 8.89 (07:40) 6.39 (07:30) 0 0 0 0 0
24-11-2019 15.6 (14:40) 5.5 (00:00) 10.6 8.89 (23:00) 6.39 (23:00) 0.6 0 0 0 0.6
23-11-2019 15.8 (14:50) 7.6 (00:00) 11.7 14.17 (02:20) 9.17 (01:10) 0 0 0 0 0
22-11-2019 16.6 (16:30) 11 (00:00) 13.8 15.28 (17:00) 10.56 (17:00) 31.6 3 5 23.6 0
21-11-2019 15.6 (16:20) 10.4 (00:00) 13 6.94 (15:40) 4.72 (15:40) 2.8 0 2.8 0 0
20-11-2019 15.3 (16:50) 7.5 (00:00) 11.4 9.44 (10:30) 6.39 (08:40) 10.6 1.6 9 0 0
19-11-2019 12 (13:00) 4.7 (00:00) 8.3 4.72 (23:59) 3.33 (23:59) 0 0 0 0 0
18-11-2019 15.1 (15:30) 5.5 (00:00) 10.3 9.17 (00:10) 5.56 (00:20) 0 0 0 0 0
17-11-2019 14.5 (16:50) 5.9 (00:00) 10.2 11.67 (23:40) 6.94 (18:20) 10.2 0.2 0 2 8
16-11-2019 14.5 (16:40) 1.1 (00:00) 7.8 7.22 (01:50) 4.72 (17:30) 0 0 0 0 0
15-11-2019 13.3 (15:00) 5.7 (00:00) 9.5 12.5 (11:10) 7.78 (11:30) 0 0 0 0 0
14-11-2019 14 (15:30) 7.6 (00:00) 10.8 16.39 (14:50) 10 (14:50) 1.6 0 1.2 0.4 0
13-11-2019 19.3 (15:10) 10.4 (00:00) 14.8 10.83 (08:00) 7.22 (08:00) 0 0 0 0 0
12-11-2019 17.6 (15:10) 6.7 (00:00) 12.2 11.67 (18:30) 6.11 (18:30) 0 0 0 0 0
11-11-2019 19 (15:50) 10.3 (01:20) 14.7 8.89 (20:00) 6.39 (20:00) 1.6 1.6 0 0 0
10-11-2019 15.9 (13:20) 9.3 (00:00) 12.6 11.39 (13:00) 7.78 (13:00) 0 0 0 0 0
09-11-2019 15.6 (15:10) 4.3 (00:00) 10 10 (18:20) 5.83 (18:20) 0 0 0 0 0
08-11-2019 16.2 (15:50) 8.1 (00:00) 12.2 10.56 (13:00) 6.11 (13:00) 0 0 0 0 0
07-11-2019 17.1 (14:50) 10.5 (00:00) 13.8 11.39 (14:30) 8.06 (11:20) 1.8 0.8 1 0 0
06-11-2019 18 (15:10) 7.1 (00:00) 12.5 8.61 (12:50) 5.83 (14:10) 0 0 0 0 0

Gráficas

Temp. máximas Temp. mínimas Temp. medias Precipitaciones Rachas de viento máximas Velocidades máximas media en intervalos de 10 minutos

Datos horarios

Fecha y hora oficial Temperatura (ºC) Velocidad del viento (km/h) Dirección del viento Racha (km/h) Dirección de racha Precipitación (mm) Presión (hPa) Tendencia (hPa) Humedad (%)
2019-12-05 23:00:00 10.8 19 Nordeste 28 Nordeste 0 -- -- 76
2019-12-05 22:00:00 11.4 15 Nordeste 26 Nordeste 0 -- -- 73
2019-12-05 21:00:00 12.2 9 Nordeste 19 Nordeste 0 -- -- 68
2019-12-05 20:00:00 12.8 13 Este 24 Nordeste 0 -- -- 66
2019-12-05 19:00:00 13.3 3 Este 19 Este 0 -- -- 64
2019-12-05 18:00:00 14.3 13 Este 34 Este 0 -- -- 60
2019-12-05 17:00:00 15 16 Este 40 Nordeste 0 -- -- 60
2019-12-05 16:00:00 15.5 18 Nordeste 36 Este 0 -- -- 59
2019-12-05 15:00:00 15.2 18 Este 37 Nordeste 0 -- -- 62
2019-12-05 14:00:00 15 20 Este 33 Nordeste 0 -- -- 61
2019-12-05 13:00:00 15 17 Este 29 Nordeste 0 -- -- 61
2019-12-05 12:00:00 13.2 16 Nordeste 27 Nordeste 0 -- -- 70
2019-12-05 11:00:00 11.8 18 Nordeste 27 Nordeste 0 -- -- 72
2019-12-05 10:00:00 9.4 18 Este 26 Este 0 -- -- 80
2019-12-05 09:00:00 7.6 14 Este 21 Este 0 -- -- 86
2019-12-05 08:00:00 7.6 15 Nordeste 31 Nordeste 0 -- -- 86
2019-12-05 07:00:00 7.9 21 Nordeste 29 Nordeste 0 -- -- 85
2019-12-05 06:00:00 8.4 15 Nordeste 23 Nordeste 0 -- -- 84
2019-12-05 05:00:00 8.9 14 Nordeste 22 Este 0 -- -- 82
2019-12-05 04:00:00 9.5 13 Este 22 Nordeste 0 -- -- 81
2019-12-05 03:00:00 10 10 Nordeste 15 Nordeste 0 -- -- 82
2019-12-05 02:00:00 9.7 3 Nordeste 7 Este 0 -- -- 87
2019-12-05 01:00:00 8.8 4 Nordeste 8 Sudoeste 0 -- -- 92
2019-12-05 00:00:00 8.8 6 Sur 9 Sudoeste 0 -- -- 89
2019-12-04 23:00:00 9.3 3 Nordeste 7 Este 0 -- -- 86
2019-12-04 22:00:00 9 6 Este 9 Este 0 -- -- 87
2019-12-04 21:00:00 8.3 4 Norte 5 Noroeste 0 -- -- 88
2019-12-04 20:00:00 8.7 4 Este 10 Nordeste 0 -- -- 85
2019-12-04 19:00:00 9.9 8 Nordeste 12 Nordeste 0 -- -- 82
2019-12-04 18:00:00 11.4 5 Este 17 Norte 0 -- -- 77
2019-12-04 17:00:00 12.2 9 Nordeste 20 Nordeste 0 -- -- 75
2019-12-04 16:00:00 13.1 5 Norte 12 Oeste 0 -- -- 72
2019-12-04 15:00:00 11.4 4 Sudoeste 8 Sudoeste 0 -- -- 85
2019-12-04 14:00:00 9 5 Sudoeste 9 Sudoeste 0 -- -- 92
2019-12-04 13:00:00 7.3 3 Oeste 8 Oeste 0 -- -- 97
2019-12-04 12:00:00 6.5 2 Noroeste 12 Sudoeste 0 -- -- 97
2019-12-04 11:00:00 5.9 8 Oeste 12 Sudoeste 0 -- -- 96
2019-12-04 10:00:00 6.8 4 Sur 15 Este 0 -- -- 97
2019-12-04 09:00:00 5 2 Sudeste 6 Oeste 0 -- -- 97
2019-12-04 08:00:00 5.1 3 Sur 11 Sudeste 0 -- -- 96
2019-12-04 07:00:00 5.5 9 Este 17 Este 0 -- -- 95
2019-12-04 06:00:00 6 3 Norte 9 Oeste 0 -- -- 95
2019-12-04 05:00:00 5.9 0 Calma 8 Este 0 -- -- 94
2019-12-04 04:00:00 6.5 7 Este 12 Este 0 -- -- 92
2019-12-04 03:00:00 7.2 2 Oeste 5 Sudoeste 0 -- -- 89
2019-12-04 02:00:00 8.5 7 Este 14 Este 0 -- -- 86
2019-12-04 01:00:00 8.6 12 Este 15 Este 0 -- -- 83
2019-12-04 00:00:00 8.4 11 Nordeste 14 Nordeste 0 -- -- 84
2019-12-03 23:00:00 8.2 10 Nordeste 14 Nordeste 0 -- -- 84
2019-12-03 22:00:00 8.8 11 Nordeste 18 Nordeste 0 -- -- 81
2019-12-03 21:00:00 9.5 11 Nordeste 15 Nordeste 0 -- -- 79
2019-12-03 20:00:00 10.1 10 Nordeste 14 Nordeste 0 -- -- 76
2019-12-03 19:00:00 11.1 10 Nordeste 15 Nordeste 0 -- -- 73
2019-12-03 18:00:00 13.4 10 Nordeste 24 Este 0 -- -- 67
2019-12-03 17:00:00 14.5 19 Este 27 Nordeste 0 -- -- 62
2019-12-03 16:00:00 15.1 12 Nordeste 31 Nordeste 0 -- -- 61
2019-12-03 15:00:00 14.7 20 Este 33 Nordeste 0 -- -- 63
2019-12-03 14:00:00 13.9 19 Nordeste 33 Nordeste 0 -- -- 64
2019-12-03 13:00:00 13 19 Nordeste 36 Nordeste 0 -- -- 67
2019-12-03 12:00:00 11.8 23 Nordeste 37 Nordeste 0 -- -- 68
2019-12-03 11:00:00 10.3 19 Nordeste 34 Nordeste 0 -- -- 72
2019-12-03 10:00:00 8.7 21 Nordeste 33 Nordeste 0 -- -- 76
2019-12-03 09:00:00 7.4 18 Nordeste 32 Nordeste 0 -- -- 80
2019-12-03 08:00:00 7.5 18 Nordeste 31 Nordeste 0 -- -- 79
2019-12-03 07:00:00 7.7 24 Nordeste 35 Nordeste 0 -- -- 80
2019-12-03 06:00:00 8 20 Nordeste 36 Este 0 -- -- 80
2019-12-03 05:00:00 8.1 11 Nordeste 33 Este 0 -- -- 81
2019-12-03 04:00:00 8.5 19 Nordeste 27 Este 0 -- -- 81
2019-12-03 03:00:00 8.9 18 Nordeste 26 Nordeste 0 -- -- 82
2019-12-03 02:00:00 9.2 15 Nordeste 23 Nordeste 0 -- -- 81
2019-12-03 01:00:00 9.3 11 Nordeste 21 Nordeste 0 -- -- 82
2019-12-03 00:00:00 10.6 15 Nordeste 27 Este 0 -- -- 77
2019-12-02 23:00:00 11.1 19 Este 32 Nordeste 0 -- -- 75
2019-12-02 22:00:00 10.8 17 Nordeste 26 Nordeste 0 -- -- 77
2019-12-02 21:00:00 11.1 13 Este 31 Este 0 -- -- 75
2019-12-02 20:00:00 11.4 16 Nordeste 41 Este 0 -- -- 73
2019-12-02 19:00:00 12.3 27 Este 46 Este 0 -- -- 68
2019-12-02 18:00:00 13.1 22 Este 38 Nordeste 0 -- -- 67
2019-12-02 17:00:00 13.4 25 Nordeste 52 Este 0 -- -- 67
2019-12-02 16:00:00 13.9 27 Este 51 Este 0 -- -- 67
2019-12-02 15:00:00 13.9 28 Este 40 Este 0 -- -- 70
2019-12-02 14:00:00 12.9 19 Nordeste 46 Este 0 -- -- 73
2019-12-02 13:00:00 12.4 29 Nordeste 48 Este 0 -- -- 74
2019-12-02 12:00:00 12 32 Este 45 Este 0 -- -- 77
2019-12-02 11:00:00 10.6 22 Este 38 Nordeste 0 -- -- 86
2019-12-02 10:00:00 9.6 21 Nordeste 35 Nordeste 0 -- -- 89
2019-12-02 09:00:00 8.5 18 Nordeste 31 Nordeste 0 -- -- 92
2019-12-02 08:00:00 8.5 17 Nordeste 27 Nordeste 0 -- -- 91
2019-12-02 07:00:00 8.2 15 Nordeste 26 Nordeste 0 -- -- 91
2019-12-02 06:00:00 8.5 14 Nordeste 25 Nordeste 0 -- -- 93
2019-12-02 05:00:00 8.8 15 Nordeste 28 Nordeste 0 -- -- 93
2019-12-02 04:00:00 8.8 16 Nordeste 26 Nordeste 0 -- -- 93
2019-12-02 03:00:00 8.7 16 Nordeste 30 Nordeste 0 -- -- 94
2019-12-02 02:00:00 8.8 16 Nordeste 31 Nordeste 0 -- -- 95
2019-12-02 01:00:00 8.7 17 Nordeste 24 Nordeste 0 -- -- 96
2019-12-02 00:00:00 9.2 17 Nordeste 27 Norte 0 -- -- 95
2019-12-01 23:00:00 10.2 17 Nordeste 28 Nordeste 0 -- -- 96
2019-12-01 22:00:00 10.6 10 Norte 18 Nordeste 0 -- -- 97
2019-12-01 21:00:00 10.8 7 Norte 15 Noroeste 0 -- -- 96
2019-12-01 20:00:00 10.7 6 Noroeste 25 Noroeste 1.2 -- -- 94
2019-12-01 19:00:00 11.3 11 Noroeste 21 Oeste 0.2 -- -- 91
2019-12-01 18:00:00 11.4 15 Noroeste 31 Oeste 1.4 -- -- 92
2019-12-01 17:00:00 12.8 22 Oeste 35 Oeste 0 -- -- 85
2019-12-01 16:00:00 12.1 14 Oeste 44 Oeste 0.2 -- -- 90
2019-12-01 15:00:00 13.8 22 Oeste 34 Oeste 0 -- -- 76
2019-12-01 14:00:00 13 13 Oeste 35 Sudoeste 0.4 -- -- 89
2019-12-01 13:00:00 13.7 19 Oeste 30 Oeste 0 -- -- 83
2019-12-01 12:00:00 12.6 17 Oeste 28 Sudoeste 0 -- -- 93
2019-12-01 11:00:00 11.3 15 Oeste 34 Sudoeste 0.8 -- -- 98
2019-12-01 10:00:00 11 17 Sudoeste 25 Oeste 0 -- -- 98
2019-12-01 09:00:00 10.5 12 Sudoeste 21 Oeste 0 -- -- 98
2019-12-01 08:00:00 10.5 12 Sudoeste 18 Sudoeste 0 -- -- 98
2019-12-01 07:00:00 10.7 15 Sudoeste 26 Oeste 0 -- -- 98
2019-12-01 06:00:00 10.6 15 Sudoeste 31 Sudoeste 0 -- -- 99
2019-12-01 05:00:00 10.6 9 Sudoeste 21 Oeste 0 -- -- 98
2019-12-01 04:00:00 11.1 16 Oeste 24 Oeste 0 -- -- 98
2019-12-01 03:00:00 11.2 9 Sudoeste 13 Sudoeste 0 -- -- 98
2019-12-01 02:00:00 11.3 4 Sudoeste 6 Sudoeste 0 -- -- 97
2019-12-01 01:00:00 11.5 4 Sudoeste 11 Oeste 0 -- -- 97
2019-12-01 00:00:00 11.8 4 Oeste 11 Oeste 0 -- -- 97
2019-11-30 23:00:00 12.2 6 Oeste 10 Oeste 0 -- -- 96
2019-11-30 22:00:00 12.3 3 Sudoeste 9 Oeste 0 -- -- 95
2019-11-30 21:00:00 12.8 5 Oeste 15 Noroeste 0 -- -- 95
2019-11-30 20:00:00 13.5 12 Noroeste 30 Oeste 1.2 -- -- 95
2019-11-30 19:00:00 14.2 13 Sudoeste 28 Oeste 0.2 -- -- 94
2019-11-30 18:00:00 15.2 23 Oeste 36 Oeste 0 -- -- 87
2019-11-30 17:00:00 16.4 20 Oeste 34 Sudoeste 0 -- -- 76
2019-11-30 16:00:00 16.8 21 Sudoeste 32 Sudoeste 0 -- -- 73
2019-11-30 15:00:00 16.7 19 Sudoeste 27 Sudoeste 0 -- -- 76
2019-11-30 14:00:00 15.7 16 Sudoeste 21 Sudoeste 0 -- -- 86
2019-11-30 13:00:00 15 13 Oeste 18 Oeste 0 -- -- 87
2019-11-30 12:00:00 14.3 8 Sudoeste 12 Sudoeste 0 -- -- 89
2019-11-30 11:00:00 13.6 8 Sur 15 Sur 0 -- -- 90
2019-11-30 10:00:00 12.4 4 Sur 6 Sudeste 0 -- -- 92
2019-11-30 09:00:00 11.7 3 Sur 9 Sur 0 -- -- 93
2019-11-30 08:00:00 11.6 4 Sur 5 Sudoeste 0 -- -- 93
2019-11-30 07:00:00 11.5 2 Sudeste 8 Sudeste 0 -- -- 92
2019-11-30 06:00:00 11.5 3 Sudeste 8 Sudeste 0 -- -- 92
2019-11-30 05:00:00 11.4 2 Sudeste 4 Sur 0 -- -- 93
2019-11-30 04:00:00 12.2 3 Sudeste 7 Sudeste 0 -- -- 91
2019-11-30 03:00:00 13.1 2 Nordeste 5 Sudeste 0 -- -- 89
2019-11-30 02:00:00 13.4 3 Sudeste 5 Sudeste 0 -- -- 87
2019-11-30 01:00:00 14.1 0 Calma 4 Noroeste 0 -- -- 86
2019-11-30 00:00:00 14.3 3 Noroeste 5 Noroeste 0 -- -- 83
2019-11-29 23:00:00 14.1 2 Sudoeste 3 Sudoeste 0 -- -- 82
2019-11-29 22:00:00 14.1 0 Calma 4 Sudoeste 0 -- -- 83
2019-11-29 21:00:00 14.3 4 Sudeste 5 Sur 0 -- -- 82
2019-11-29 20:00:00 15.2 4 Sur 6 Sur 0 -- -- 78
2019-11-29 19:00:00 16 3 Sudoeste 12 Sudoeste 0 -- -- 76
2019-11-29 18:00:00 16.8 9 Sudoeste 12 Oeste 0 -- -- 72
2019-11-29 17:00:00 17.4 7 Oeste 14 Oeste 0 -- -- 69
2019-11-29 16:00:00 17.6 9 Oeste 17 Oeste 0 -- -- 67
2019-11-29 15:00:00 17.3 11 Oeste 21 Oeste 0 -- -- 68
2019-11-29 14:00:00 17.4 15 Oeste 21 Oeste 0 -- -- 71
2019-11-29 13:00:00 17.2 12 Oeste 18 Sudoeste 0 -- -- 75
2019-11-29 12:00:00 17.3 11 Sudoeste 16 Sur 0 -- -- 77
2019-11-29 11:00:00 15.2 8 Sudoeste 11 Sudoeste 0 -- -- 87
2019-11-29 10:00:00 13.9 3 Sudoeste 10 Sudoeste 0 -- -- 93
2019-11-29 09:00:00 13.3 10 Sur 14 Sur 0 -- -- 95
2019-11-29 08:00:00 13.2 3 Sur 6 Sur 0 -- -- 96
2019-11-29 07:00:00 13.2 3 Sur 6 Sur 0 -- -- 96
2019-11-29 06:00:00 13 3 Sur 10 Sur 0 -- -- 97
2019-11-29 05:00:00 13 6 Sur 10 Sur 0 -- -- 97
2019-11-29 04:00:00 13 5 Sudoeste 9 Sudoeste 0 -- -- 97
2019-11-29 03:00:00 13 8 Oeste 17 Sudoeste 0 -- -- 97
2019-11-29 02:00:00 13 10 Sudoeste 16 Sudoeste 0 -- -- 97
2019-11-29 01:00:00 12.2 6 Sur 9 Sudoeste 0 -- -- 96
2019-11-29 00:00:00 12.3 4 Sur 9 Sudoeste 0 -- -- 95
2019-11-28 23:00:00 13.2 5 Oeste 10 Oeste 0 -- -- 93
2019-11-28 22:00:00 13.7 5 Oeste 10 Oeste 0 -- -- 90
2019-11-28 21:00:00 14.7 3 Oeste 19 Oeste 0 -- -- 86
2019-11-28 20:00:00 15.3 5 Sudoeste 11 Oeste 0 -- -- 82
2019-11-28 19:00:00 15.4 5 Sudoeste 12 Sudoeste 0 -- -- 79
2019-11-28 18:00:00 16.1 9 Sudoeste 16 Sudoeste 0 -- -- 76
2019-11-28 17:00:00 16.4 12 Sudoeste 18 Sudoeste 0 -- -- 74
2019-11-28 16:00:00 16.5 12 Oeste 22 Sudoeste 0 -- -- 74
2019-11-28 15:00:00 16.2 15 Oeste 23 Oeste 0 -- -- 75
2019-11-28 14:00:00 15.7 16 Oeste 23 Sudoeste 0 -- -- 79
2019-11-28 13:00:00 15.1 15 Sudoeste 24 Sudoeste 0 -- -- 84
2019-11-28 12:00:00 14.3 14 Sudoeste 21 Sudoeste 0 -- -- 89
2019-11-28 11:00:00 13.7 9 Sudoeste 12 Sudoeste 0 -- -- 92
2019-11-28 10:00:00 12.6 4 Sur 10 Sudeste 0 -- -- 98
2019-11-28 09:00:00 11.7 6 Sur 13 Sur 0 -- -- 98
2019-11-28 08:00:00 11.3 5 Sur 12 Sur 0 -- -- 97
2019-11-28 07:00:00 11.3 8 Sur 13 Sur 0 -- -- 96
2019-11-28 06:00:00 11.4 5 Oeste 9 Oeste 0 -- -- 95
2019-11-28 05:00:00 11.6 5 Oeste 8 Oeste 0 -- -- 94
2019-11-28 04:00:00 11.9 4 Sudoeste 8 Sudoeste 0 -- -- 93
2019-11-28 03:00:00 12 3 Sur 6 Sudoeste 0 -- -- 92
2019-11-28 02:00:00 12.2 5 Sudoeste 7 Sudoeste 0 -- -- 92
2019-11-28 01:00:00 12.2 0 Calma 7 Sudoeste 0 -- -- 91
2019-11-28 00:00:00 12.5 5 Sudoeste 10 Sudoeste 0 -- -- 90
2019-11-27 23:00:00 12.6 3 Sudoeste 12 Sudoeste 0 -- -- 87
2019-11-27 22:00:00 12.6 7 Sudoeste 11 Oeste 0 -- -- 86
2019-11-27 21:00:00 13.1 5 Oeste 9 Oeste 0 -- -- 83
2019-11-27 20:00:00 13.4 4 Oeste 12 Oeste 0 -- -- 80
2019-11-27 19:00:00 14.1 6 Oeste 14 Oeste 0 -- -- 79
2019-11-27 18:00:00 15.3 11 Oeste 25 Oeste 0 -- -- 72
2019-11-27 17:00:00 15.9 18 Oeste 29 Oeste 0 -- -- 71
2019-11-27 16:00:00 16.8 17 Oeste 23 Oeste 0 -- -- 63
2019-11-27 15:00:00 15.8 15 Oeste 26 Oeste 0 -- -- 67
2019-11-27 14:00:00 16.8 13 Noroeste 27 Oeste 0 -- -- 68
2019-11-27 06:00:00 -- -- -- -- -- -- -- -- --
2019-11-27 05:00:00 -- -- -- -- -- -- -- -- --
2019-11-27 04:00:00 -- -- -- -- -- -- -- -- --
2019-11-27 03:00:00 -- -- -- -- -- -- -- -- --
2019-11-27 02:00:00 13.6 12 Noroeste 21 Noroeste 0.8 -- -- 98
2019-11-27 01:00:00 13.7 16 Sudoeste 23 Sudoeste 0 -- -- 98
2019-11-27 00:00:00 13.3 9 Sudoeste 15 Sudoeste 0 -- -- 98
2019-11-26 23:00:00 13.8 10 Sudoeste 18 Oeste 0 -- -- 97
2019-11-26 22:00:00 14.1 12 Sudoeste 21 Oeste 0 -- -- 97
2019-11-26 21:00:00 14.6 15 Sudoeste 25 Oeste 0 -- -- 96
2019-11-26 20:00:00 15.3 17 Oeste 34 Oeste 0.2 -- -- 97
2019-11-26 19:00:00 14.9 22 Sudoeste 30 Sudoeste 1.8 -- -- 96
2019-11-26 18:00:00 15.3 19 Oeste 42 Sudoeste 1.4 -- -- 91
2019-11-26 17:00:00 18.3 20 Oeste 40 Oeste 0 -- -- 72
2019-11-26 16:00:00 18.3 26 Oeste 44 Sudoeste 0 -- -- 73
2019-11-26 15:00:00 18 27 Sudoeste 42 Sudoeste 0 -- -- 76
2019-11-26 14:00:00 17.9 27 Sudoeste 39 Oeste 0 -- -- 79
2019-11-26 13:00:00 17 23 Sudoeste 32 Sudoeste 0 -- -- 86
2019-11-26 12:00:00 16.1 19 Sudoeste 27 Sudoeste 0 -- -- 95
2019-11-26 11:00:00 15.2 18 Sudoeste 27 Sudoeste 0 -- -- 99
2019-11-26 10:00:00 14.7 14 Sudoeste 20 Sudoeste 0 -- -- 99
2019-11-26 09:00:00 14.4 13 Sudoeste 19 Sudoeste 0 -- -- 99
2019-11-26 08:00:00 14.3 11 Sudoeste 21 Sudoeste 0 -- -- 98
2019-11-26 07:00:00 14.3 12 Sudoeste 27 Sudoeste 0 -- -- 98
2019-11-26 06:00:00 14.3 11 Sudoeste 15 Sudoeste 0.2 -- -- 98
2019-11-26 05:00:00 14.4 9 Sudoeste 15 Sudoeste 0 -- -- 98
2019-11-26 04:00:00 14.3 6 Sudoeste 12 Sudoeste 0.4 -- -- 97
2019-11-26 03:00:00 13.9 6 Sudoeste 10 Sur 0.2 -- -- 97
2019-11-26 02:00:00 13.7 5 Sudoeste 9 Sur 0 -- -- 95
2019-11-26 01:00:00 13.4 5 Sudoeste 9 Sur 0 -- -- 94
2019-11-26 00:00:00 13 4 Sudoeste 5 Sur 0 -- -- 93
2019-11-25 23:00:00 13.6 4 Sur 7 Oeste 0 -- -- 91
2019-11-25 22:00:00 14 5 Oeste 14 Noroeste 0 -- -- 89
2019-11-25 21:00:00 14.4 9 Noroeste 16 Oeste 0 -- -- 86
2019-11-25 20:00:00 15.2 13 Noroeste 17 Noroeste 0 -- -- 81
2019-11-25 19:00:00 15.7 7 Oeste 16 Oeste 0 -- -- 81
2019-11-25 18:00:00 17.2 9 Oeste 23 Oeste 0 -- -- 76
2019-11-25 17:00:00 17.9 15 Oeste 25 Oeste 0 -- -- 74
2019-11-25 16:00:00 18.2 13 Oeste 26 Oeste 0 -- -- 70
2019-11-25 15:00:00 18.3 17 Oeste 27 Oeste 0 -- -- 72
2019-11-25 14:00:00 17.7 16 Oeste 22 Oeste 0 -- -- 75
2019-11-25 13:00:00 17.6 15 Oeste 25 Oeste 0 -- -- 79
2019-11-25 12:00:00 16.3 16 Oeste 26 Oeste 0 -- -- 92
2019-11-25 11:00:00 15.2 13 Oeste 26 Oeste 0 -- -- 98
2019-11-25 10:00:00 14.6 13 Sudoeste 26 Sudoeste 0 -- -- 98
2019-11-25 09:00:00 14.3 16 Oeste 32 Oeste 0 -- -- 98
2019-11-25 08:00:00 14.1 21 Sudoeste 32 Oeste 0 -- -- 97
2019-11-25 07:00:00 14.1 20 Sudoeste 31 Sudoeste 0 -- -- 97
2019-11-25 06:00:00 14.1 21 Sudoeste 31 Sudoeste 0 -- -- 97
2019-11-25 05:00:00 13.8 18 Sudoeste 27 Sudoeste 0 -- -- 97
2019-11-25 04:00:00 13.4 14 Sudoeste 23 Sudoeste 0 -- -- 97
2019-11-25 03:00:00 12.9 11 Sudoeste 17 Oeste 0 -- -- 97
2019-11-25 02:00:00 12.3 12 Sudoeste 18 Sudoeste 0 -- -- 97
2019-11-25 01:00:00 12 12 Sudoeste 21 Sudoeste 0 -- -- 96
2019-11-25 00:00:00 12 13 Sudoeste 23 Sudoeste 0.6 -- -- 95
2019-11-24 23:00:00 12.4 23 Sudoeste 32 Sudoeste 0 -- -- 91
2019-11-24 22:00:00 12.9 12 Sudoeste 17 Sudoeste 0 -- -- 86
2019-11-24 21:00:00 12.8 7 Sudoeste 12 Sudoeste 0 -- -- 84
2019-11-24 20:00:00 12.7 5 Sudoeste 10 Sur 0 -- -- 84
2019-11-24 19:00:00 13.3 6 Sudoeste 10 Sudoeste 0 -- -- 81
2019-11-24 18:00:00 14.1 8 Sudoeste 23 Oeste 0 -- -- 78
2019-11-24 17:00:00 14.4 14 Oeste 22 Oeste 0 -- -- 74
2019-11-24 16:00:00 14.7 14 Oeste 24 Oeste 0 -- -- 71
2019-11-24 15:00:00 15.1 14 Sudoeste 23 Sudoeste 0 -- -- 70
2019-11-24 14:00:00 15 11 Oeste 20 Oeste 0 -- -- 70
2019-11-24 13:00:00 13.9 12 Oeste 17 Oeste 0 -- -- 76
2019-11-24 12:00:00 12.6 7 Sudoeste 13 Sudoeste 0 -- -- 82
2019-11-24 11:00:00 10.1 7 Sudoeste 10 Sur 0 -- -- 92
2019-11-24 10:00:00 8.1 4 Sudeste 9 Sudeste 0 -- -- 98
2019-11-24 09:00:00 6 5 Sudeste 9 Sudeste 0 -- -- 97
2019-11-24 08:00:00 5.5 3 Sudeste 8 Sudeste 0 -- -- 97
2019-11-24 07:00:00 5.6 3 Sudeste 8 Sudeste 0 -- -- 96
2019-11-24 06:00:00 6.1 3 Sur 4 Sur 0 -- -- 96
2019-11-24 05:00:00 6 0 Calma 4 Sudeste 0 -- -- 95
2019-11-24 04:00:00 6.3 3 Sudeste 4 Sur 0 -- -- 94
2019-11-24 03:00:00 6.9 0 Calma 3 Sur 0 -- -- 94
2019-11-24 02:00:00 6.8 0 Calma 3 Sudoeste 0 -- -- 93
2019-11-24 01:00:00 7.3 0 Calma 4 Sur 0 -- -- 92
2019-11-24 00:00:00 7.6 0 Calma 5 Sur 0 -- -- 90
2019-11-23 23:00:00 8.5 3 Noroeste 10 Noroeste 0 -- -- 87
2019-11-23 22:00:00 9.2 5 Norte 11 Noroeste 0 -- -- 84
2019-11-23 21:00:00 9.9 8 Noroeste 13 Noroeste 0 -- -- 81
2019-11-23 20:00:00 10.7 5 Noroeste 19 Noroeste 0 -- -- 77
2019-11-23 19:00:00 11.7 9 Noroeste 19 Noroeste 0 -- -- 74
2019-11-23 18:00:00 13.1 13 Noroeste 31 Noroeste 0 -- -- 65
2019-11-23 17:00:00 14.6 18 Noroeste 37 Noroeste 0 -- -- 64
2019-11-23 16:00:00 14.9 23 Noroeste 39 Noroeste 0 -- -- 60
2019-11-23 15:00:00 15.5 24 Noroeste 35 Noroeste 0 -- -- 56
2019-11-23 14:00:00 14 18 Noroeste 38 Noroeste 0 -- -- 63
2019-11-23 13:00:00 14.6 26 Noroeste 39 Noroeste 0 -- -- 61
2019-11-23 12:00:00 13.7 24 Noroeste 38 Noroeste 0 -- -- 67
2019-11-23 11:00:00 12 18 Noroeste 30 Noroeste 0 -- -- 80
2019-11-23 10:00:00 10.9 16 Noroeste 27 Noroeste 0 -- -- 86
2019-11-23 09:00:00 9.6 16 Noroeste 27 Oeste 0 -- -- 90
2019-11-23 08:00:00 9.3 10 Oeste 15 Oeste 0 -- -- 92
2019-11-23 07:00:00 9.8 6 Oeste 19 Oeste 0 -- -- 90
2019-11-23 06:00:00 10.1 9 Oeste 21 Noroeste 0 -- -- 89
2019-11-23 05:00:00 10.7 15 Noroeste 26 Noroeste 0 -- -- 88
2019-11-23 04:00:00 11.3 15 Noroeste 39 Noroeste 0 -- -- 86
2019-11-23 03:00:00 11.2 22 Noroeste 51 Noroeste 0 -- -- 84
2019-11-23 02:00:00 12 27 Noroeste 49 Oeste 0 -- -- 82
2019-11-23 01:00:00 12.4 27 Noroeste 49 Oeste 0 -- -- 84
2019-11-23 00:00:00 12.6 30 Oeste 55 Oeste 0 -- -- 83
2019-11-22 23:00:00 12.7 22 Oeste 35 Oeste 0 -- -- 79
2019-11-22 22:00:00 12.8 23 Oeste 38 Oeste 0 -- -- 79
2019-11-22 21:00:00 13 20 Oeste 42 Oeste 0 -- -- 83
2019-11-22 20:00:00 13.7 28 Oeste 46 Oeste 0 -- -- 81
2019-11-22 19:00:00 14.3 26 Oeste 44 Oeste 0 -- -- 75
2019-11-22 18:00:00 14.5 27 Oeste 50 Oeste 0 -- -- 73
2019-11-22 17:00:00 15.9 38 Oeste 55 Oeste 0 -- -- 69
2019-11-22 16:00:00 16.1 26 Noroeste 44 Noroeste 1.4 -- -- 85
2019-11-22 15:00:00 15.3 28 Noroeste 50 Oeste 19.4 -- -- 98
2019-11-22 14:00:00 15.6 30 Sudoeste 51 Sudoeste 1.4 -- -- 98
2019-11-22 13:00:00 15.1 31 Sudoeste 51 Sudoeste 1.4 -- -- 98
2019-11-22 12:00:00 14.4 33 Sudoeste 48 Sudoeste 0.2 -- -- 97
2019-11-22 11:00:00 13.7 26 Sudoeste 45 Sudoeste 3 -- -- 97
2019-11-22 10:00:00 13.5 31 Sudoeste 55 Sudoeste 0.4 -- -- 97
2019-11-22 09:00:00 13 27 Sudoeste 41 Sudoeste 0.6 -- -- 97
2019-11-22 08:00:00 12.6 23 Sudoeste 38 Sudoeste 0 -- -- 97
2019-11-22 07:00:00 12 20 Sudoeste 32 Sudoeste 0.8 -- -- 97
2019-11-22 06:00:00 11.6 18 Sur 27 Sudoeste 1.8 -- -- 97
2019-11-22 05:00:00 11.4 13 Sudoeste 26 Sur 0.2 -- -- 97
2019-11-22 04:00:00 11.3 10 Sur 18 Sur 1 -- -- 97
2019-11-22 03:00:00 11.1 6 Sudoeste 15 Sudoeste 0 -- -- 97
2019-11-22 02:00:00 11.1 9 Sudoeste 13 Sudoeste 0 -- -- 97
2019-11-22 01:00:00 11.2 8 Sudoeste 13 Sudoeste 0 -- -- 97
2019-11-22 00:00:00 11 5 Sur 9 Sur 0 -- -- 97
2019-11-21 23:00:00 10.8 5 Sudoeste 8 Sudoeste 0 -- -- 96
2019-11-21 22:00:00 11.4 5 Sur 8 Sudoeste 0 -- -- 95
2019-11-21 21:00:00 11.8 5 Sudoeste 7 Sudoeste 0 -- -- 94
2019-11-21 20:00:00 12.1 6 Sudoeste 9 Sudoeste 0 -- -- 92
2019-11-21 19:00:00 12.9 5 Sudoeste 14 Sudoeste 0 -- -- 88
2019-11-21 18:00:00 14.2 10 Sudoeste 21 Oeste 0 -- -- 83
2019-11-21 17:00:00 15.2 13 Oeste 22 Sudoeste 0 -- -- 78
2019-11-21 16:00:00 15.4 17 Oeste 25 Oeste 0 -- -- 78
2019-11-21 15:00:00 14.6 13 Oeste 23 Oeste 0 -- -- 86
2019-11-21 14:00:00 13.1 10 Sudoeste 18 Sudoeste 0 -- -- 96
2019-11-21 13:00:00 12.8 9 Sudoeste 19 Sur 0 -- -- 97
2019-11-21 12:00:00 12.4 10 Sudoeste 18 Sur 0.6 -- -- 98
2019-11-21 11:00:00 12 12 Sudoeste 15 Sudoeste 0 -- -- 98
2019-11-21 10:00:00 11.7 9 Sudoeste 14 Sudoeste 0.4 -- -- 98
2019-11-21 09:00:00 11.4 10 Oeste 18 Sudoeste 1.8 -- -- 97
2019-11-21 08:00:00 11.2 9 Sudoeste 17 Sudoeste 0 -- -- 97
2019-11-21 07:00:00 11.1 12 Sudoeste 20 Sudoeste 0 -- -- 97
2019-11-21 06:00:00 11 8 Sudoeste 16 Sur 0 -- -- 96
2019-11-21 05:00:00 10.6 5 Sur 10 Sur 0 -- -- 96
2019-11-21 04:00:00 10.5 6 Sur 10 Sur 0 -- -- 96
2019-11-21 03:00:00 10.8 7 Sudoeste 13 Sudoeste 0 -- -- 96
2019-11-21 02:00:00 10.9 6 Sudoeste 11 Sudoeste 0 -- -- 96
2019-11-21 01:00:00 10.8 5 Sudoeste 9 Sudoeste 0 -- -- 95
2019-11-21 00:00:00 10.4 4 Sudoeste 11 Sudoeste 0 -- -- 95
2019-11-20 23:00:00 10.1 8 Sudoeste 13 Sur 0 -- -- 94
2019-11-20 22:00:00 10.8 6 Sudoeste 12 Sudoeste 0 -- -- 92
2019-11-20 21:00:00 11.6 9 Oeste 19 Oeste 0 -- -- 87
2019-11-20 20:00:00 11.2 8 Sudoeste 15 Sudoeste 0 -- -- 88
2019-11-20 19:00:00 11.9 8 Sudoeste 20 Sudoeste 0 -- -- 84
2019-11-20 18:00:00 13.3 8 Sudoeste 21 Sudoeste 0 -- -- 71
2019-11-20 17:00:00 14.9 13 Oeste 23 Sudoeste 0 -- -- 62
2019-11-20 16:00:00 15.1 14 Oeste 24 Oeste 0 -- -- 67
2019-11-20 15:00:00 14.8 14 Oeste 28 Sudoeste 0 -- -- 74
2019-11-20 14:00:00 13 15 Sudoeste 27 Sudoeste 0 -- -- 85
2019-11-20 13:00:00 12.5 15 Sudoeste 24 Sudoeste 0 -- -- 91
2019-11-20 12:00:00 10.3 15 Sur 28 Sur 0 -- -- 93
2019-11-20 11:00:00 9.2 18 Sur 34 Sudeste 0 -- -- 94
2019-11-20 10:00:00 8.1 18 Sudeste 30 Sudeste 0.2 -- -- 94
2019-11-20 09:00:00 7.8 16 Sudeste 32 Sudeste 2.2 -- -- 95
2019-11-20 08:00:00 7.7 6 Sudeste 30 Noroeste 6 -- -- 94
2019-11-20 07:00:00 8 8 Sudeste 17 Sudeste 0.6 -- -- 91
2019-11-20 06:00:00 8 9 Sudeste 19 Sudeste 1.2 -- -- 90
2019-11-20 05:00:00 8.4 10 Sudeste 17 Sudeste 0.4 -- -- 84
2019-11-20 04:00:00 9.2 10 Sudeste 15 Sudeste 0 -- -- 76
2019-11-20 03:00:00 9.1 4 Sudeste 12 Sudeste 0 -- -- 81
2019-11-20 02:00:00 9.1 7 Sudeste 13 Sudeste 0 -- -- 81
2019-11-20 01:00:00 9.1 4 Sur 15 Sudeste 0 -- -- 80
2019-11-20 00:00:00 9.2 12 Sudeste 17 Sudeste 0 -- -- 80
2019-11-19 23:00:00 8.7 3 Sur 10 Sudeste 0 -- -- 78
2019-11-19 22:00:00 8.3 6 Sudeste 9 Sudeste 0 -- -- 77
2019-11-19 21:00:00 8.3 0 Calma 5 Este 0 -- -- 78
2019-11-19 20:00:00 9.6 5 Este 6 Este 0 -- -- 75
2019-11-19 19:00:00 10.5 3 Oeste 6 Oeste 0 -- -- 68
2019-11-19 18:00:00 11.1 2 Oeste 13 Oeste 0 -- -- 66
2019-11-19 17:00:00 11.6 7 Oeste 13 Oeste 0 -- -- 63
2019-11-19 16:00:00 11.7 8 Sudoeste 13 Oeste 0 -- -- 66
2019-11-19 15:00:00 11.5 6 Oeste 12 Oeste 0 -- -- 72
2019-11-19 14:00:00 11.4 8 Oeste 13 Oeste 0 -- -- 76
2019-11-19 13:00:00 12 6 Sudoeste 13 Oeste 0 -- -- 73
2019-11-19 12:00:00 10.1 4 Sur 8 Sudoeste 0 -- -- 78
2019-11-19 11:00:00 8.5 7 Sudoeste 10 Sudoeste 0 -- -- 86
2019-11-19 10:00:00 5.7 7 Sudeste 10 Sudeste 0 -- -- 92
2019-11-19 09:00:00 5.1 3 Sur 6 Sur 0 -- -- 93
2019-11-19 08:00:00 5 3 Sudeste 8 Sudeste 0 -- -- 94
2019-11-19 07:00:00 4.7 4 Sur 8 Sudeste 0 -- -- 94
2019-11-19 06:00:00 4.7 0 Calma 9 Sudeste 0 -- -- 94
2019-11-19 05:00:00 4.8 3 Sudeste 6 Sudeste 0 -- -- 94
2019-11-19 04:00:00 5.2 2 Nordeste 7 Este 0 -- -- 93
2019-11-19 03:00:00 5.7 0 Calma 3 Sudeste 0 -- -- 93
2019-11-19 02:00:00 5.6 2 Sudeste 8 Sudoeste 0 -- -- 91
2019-11-19 01:00:00 6.2 0 Calma 8 Sudoeste 0 -- -- 88
2019-11-19 00:00:00 7.2 0 Calma 10 Este 0 -- -- 85
2019-11-18 23:00:00 7.9 6 Nordeste 8 Nordeste 0 -- -- 84
2019-11-18 22:00:00 9 7 Nordeste 10 Nordeste 0 -- -- 78
2019-11-18 21:00:00 9.8 5 Norte 13 Norte 0 -- -- 76
2019-11-18 20:00:00 10.6 5 Norte 12 Norte 0 -- -- 69
2019-11-18 19:00:00 11.4 8 Norte 9 Norte 0 -- -- 67
2019-11-18 18:00:00 13.5 6 Norte 12 Norte 0 -- -- 57
2019-11-18 17:00:00 15.1 7 Norte 19 Noroeste 0 -- -- 55
2019-11-18 16:00:00 15.1 10 Norte 20 Noroeste 0 -- -- 55
2019-11-18 15:00:00 14.7 11 Norte 23 Norte 0 -- -- 58
2019-11-18 14:00:00 14.2 8 Norte 17 Norte 0 -- -- 60
2019-11-18 13:00:00 12.8 6 Noroeste 15 Norte 0 -- -- 68
2019-11-18 12:00:00 10.9 8 Norte 15 Norte 0 -- -- 78
2019-11-18 11:00:00 9.1 3 Sudoeste 8 Sudoeste 0 -- -- 93
2019-11-18 10:00:00 7.8 5 Nordeste 10 Norte 0 -- -- 95
2019-11-18 09:00:00 6.3 2 Nordeste 13 Norte 0 -- -- 97
2019-11-18 08:00:00 5.8 8 Norte 13 Norte 0 -- -- 95
2019-11-18 07:00:00 5.6 3 Norte 9 Noroeste 0 -- -- 95
2019-11-18 06:00:00 6 5 Norte 12 Norte 0 -- -- 93
2019-11-18 05:00:00 6.6 7 Nordeste 17 Norte 0 -- -- 91
2019-11-18 04:00:00 7 12 Norte 20 Norte 0 -- -- 90
2019-11-18 03:00:00 7.4 12 Norte 22 Norte 0 -- -- 89
2019-11-18 02:00:00 7.9 12 Norte 24 Norte 0 -- -- 86
2019-11-18 01:00:00 9.1 16 Norte 33 Norte 0 -- -- 84
2019-11-18 00:00:00 11.1 18 Norte 42 Norte 0.8 -- -- 92
2019-11-17 23:00:00 12.8 14 Oeste 27 Oeste 0.4 -- -- 97
2019-11-17 22:00:00 13 14 Oeste 21 Oeste 0.4 -- -- 97
2019-11-17 21:00:00 12.8 11 Oeste 24 Oeste 0.2 -- -- 96
2019-11-17 20:00:00 13 16 Oeste 28 Noroeste 0.2 -- -- 96
2019-11-17 19:00:00 12.8 18 Noroeste 39 Oeste 6 -- -- 95
2019-11-17 18:00:00 14.3 21 Oeste 34 Oeste 0.2 -- -- 89
2019-11-17 17:00:00 14.5 21 Oeste 33 Oeste 0 -- -- 91
2019-11-17 16:00:00 14.1 23 Oeste 37 Oeste 0.6 -- -- 94
2019-11-17 15:00:00 14.1 22 Oeste 33 Oeste 0.8 -- -- 97
2019-11-17 14:00:00 14 20 Oeste 27 Oeste 0 -- -- 98
2019-11-17 13:00:00 12.7 14 Oeste 26 Oeste 0.4 -- -- 98
2019-11-17 12:00:00 11.9 17 Sudoeste 26 Oeste 0 -- -- 98
2019-11-17 11:00:00 10.4 15 Sudoeste 21 Sudoeste 0 -- -- 98
2019-11-17 10:00:00 9.4 12 Oeste 21 Oeste 0 -- -- 98
2019-11-17 09:00:00 8.5 11 Sudoeste 17 Sudoeste 0 -- -- 97
2019-11-17 08:00:00 7.8 9 Sudoeste 17 Sudoeste 0 -- -- 97
2019-11-17 07:00:00 7.2 9 Sur 16 Sur 0 -- -- 96
2019-11-17 06:00:00 6.4 10 Sudoeste 15 Sur 0.2 -- -- 94
2019-11-17 05:00:00 6.6 6 Sur 10 Sudoeste 0 -- -- 88
2019-11-17 04:00:00 6.8 5 Sudeste 7 Sudeste 0 -- -- 84
2019-11-17 03:00:00 6.8 2 Sudoeste 4 Sudoeste 0 -- -- 83
2019-11-17 02:00:00 6.4 3 Sudoeste 4 Oeste 0 -- -- 81
2019-11-17 01:00:00 6.1 0 Calma 5 Sudoeste 0 -- -- 80
2019-11-17 00:00:00 6.2 2 Sudoeste 4 Sudoeste 0 -- -- 76
2019-11-16 23:00:00 7.4 0 Calma 8 Noroeste 0 -- -- 72
2019-11-16 22:00:00 8.2 0 Calma 10 Noroeste 0 -- -- 65
2019-11-16 21:00:00 8.8 5 Noroeste 10 Norte 0 -- -- 63
2019-11-16 20:00:00 9.4 7 Noroeste 13 Noroeste 0 -- -- 60
2019-11-16 19:00:00 10.7 6 Noroeste 17 Noroeste 0 -- -- 56
2019-11-16 18:00:00 12.8 10 Noroeste 26 Noroeste 0 -- -- 49
2019-11-16 17:00:00 14 16 Noroeste 23 Noroeste 0 -- -- 41
2019-11-16 16:00:00 13.9 14 Oeste 23 Noroeste 0 -- -- 44
2019-11-16 15:00:00 13.5 13 Noroeste 21 Noroeste 0 -- -- 47
2019-11-16 14:00:00 12.7 8 Norte 20 Norte 0 -- -- 48
2019-11-16 13:00:00 11.3 9 Norte 14 Norte 0 -- -- 55
2019-11-16 12:00:00 9.8 7 Norte 14 Norte 0 -- -- 61
2019-11-16 11:00:00 7.9 9 Norte 18 Nordeste 0 -- -- 69
2019-11-16 10:00:00 6.2 12 Nordeste 16 Norte 0 -- -- 79
2019-11-16 09:00:00 2.4 0 Calma 3 Nordeste 0 -- -- 96
2019-11-16 08:00:00 1.4 0 Calma 8 Nordeste 0 -- -- 93
2019-11-16 07:00:00 1.8 5 Nordeste 9 Norte 0 -- -- 91
2019-11-16 06:00:00 2.5 6 Norte 8 Norte 0 -- -- 91
2019-11-16 05:00:00 3.2 4 Nordeste 14 Norte 0 -- -- 89
2019-11-16 04:00:00 3.6 9 Norte 15 Norte 0 -- -- 88
2019-11-16 03:00:00 4.4 12 Norte 18 Norte 0 -- -- 86
2019-11-16 02:00:00 4.9 12 Norte 26 Norte 0 -- -- 83
2019-11-16 01:00:00 4.5 2 Norte 15 Norte 0 -- -- 80
2019-11-16 00:00:00 5.7 9 Norte 20 Norte 0 -- -- 74
2019-11-15 23:00:00 6.5 12 Norte 22 Noroeste 0 -- -- 69
2019-11-15 22:00:00 7 16 Norte 25 Norte 0 -- -- 65
2019-11-15 21:00:00 7.6 16 Norte 24 Norte 0 -- -- 61
2019-11-15 20:00:00 8.3 11 Noroeste 27 Norte 0 -- -- 59
2019-11-15 19:00:00 9.4 16 Norte 31 Noroeste 0 -- -- 53
2019-11-15 18:00:00 11 19 Norte 37 Norte 0 -- -- 46
2019-11-15 17:00:00 12.5 25 Norte 38 Norte 0 -- -- 43
2019-11-15 16:00:00 13.1 19 Norte 39 Noroeste 0 -- -- 43
2019-11-15 15:00:00 13.3 21 Norte 37 Norte 0 -- -- 45
2019-11-15 14:00:00 12 22 Norte 37 Norte 0 -- -- 48
2019-11-15 13:00:00 12 19 Noroeste 33 Norte 0 -- -- 53
2019-11-15 12:00:00 10.4 25 Norte 45 Norte 0 -- -- 58
2019-11-15 11:00:00 9.4 27 Norte 42 Norte 0 -- -- 62
2019-11-15 10:00:00 7.5 18 Noroeste 31 Noroeste 0 -- -- 75
2019-11-15 09:00:00 6.5 14 Noroeste 31 Noroeste 0 -- -- 78
2019-11-15 08:00:00 6.4 17 Noroeste 24 Noroeste 0 -- -- 81
2019-11-15 07:00:00 6.1 8 Oeste 14 Oeste 0 -- -- 88
2019-11-15 06:00:00 5.9 8 Oeste 15 Oeste 0 -- -- 89
2019-11-15 05:00:00 6 10 Oeste 16 Noroeste 0 -- -- 86
2019-11-15 04:00:00 6.5 5 Noroeste 19 Noroeste 0 -- -- 85
2019-11-15 03:00:00 6.4 10 Noroeste 22 Noroeste 0 -- -- 85
2019-11-15 02:00:00 7 11 Noroeste 29 Noroeste 0 -- -- 81
2019-11-15 01:00:00 7.4 16 Noroeste 25 Noroeste 0 -- -- 79
2019-11-15 00:00:00 7.6 12 Noroeste 26 Noroeste 0 -- -- 77
2019-11-14 23:00:00 8.1 16 Noroeste 31 Noroeste 0 -- -- 74
2019-11-14 22:00:00 9.2 19 Noroeste 33 Noroeste 0 -- -- 71
2019-11-14 21:00:00 9.9 16 Noroeste 26 Oeste 0 -- -- 78
2019-11-14 20:00:00 10 14 Oeste 24 Noroeste 0 -- -- 81
2019-11-14 19:00:00 11.2 16 Noroeste 28 Noroeste 0 -- -- 69
2019-11-14 18:00:00 11.9 20 Noroeste 39 Noroeste 0 -- -- 68
2019-11-14 17:00:00 12.6 25 Noroeste 44 Noroeste 0 -- -- 59
2019-11-14 16:00:00 13 28 Noroeste 50 Noroeste 0 -- -- 60
2019-11-14 15:00:00 13.5 33 Noroeste 59 Noroeste 0 -- -- 58
2019-11-14 14:00:00 11.9 24 Noroeste 42 Noroeste 0.4 -- -- 72
2019-11-14 13:00:00 11.3 18 Noroeste 35 Noroeste 0 -- -- 80
2019-11-14 12:00:00 10.6 22 Noroeste 37 Norte 0 -- -- 79
2019-11-14 11:00:00 10.5 20 Noroeste 43 Norte 0.4 -- -- 86
2019-11-14 10:00:00 10.5 22 Noroeste 41 Noroeste 0.2 -- -- 92
2019-11-14 09:00:00 11.3 30 Noroeste 46 Oeste 0.6 -- -- 90
2019-11-14 08:00:00 11.4 19 Oeste 34 Oeste 0 -- -- 93
2019-11-14 07:00:00 11.1 18 Oeste 34 Oeste 0 -- -- 93
2019-11-14 06:00:00 10.7 9 Oeste 22 Oeste 0 -- -- 93
2019-11-14 05:00:00 10.7 12 Oeste 24 Oeste 0 -- -- 93
2019-11-14 04:00:00 10 7 Oeste 17 Noroeste 0 -- -- 93
2019-11-14 03:00:00 9.7 5 Sudoeste 11 Oeste 0 -- -- 90
2019-11-14 02:00:00 10.1 6 Oeste 12 Oeste 0 -- -- 88
2019-11-14 01:00:00 10.2 6 Oeste 17 Oeste 0 -- -- 86
2019-11-14 00:00:00 10.4 12 Oeste 16 Oeste 0 -- -- 85
2019-11-13 23:00:00 11.1 9 Noroeste 21 Noroeste 0 -- -- 83
2019-11-13 22:00:00 12.2 11 Noroeste 17 Noroeste 0 -- -- 85
2019-11-13 21:00:00 13.5 14 Noroeste 26 Noroeste 0 -- -- 80
2019-11-13 20:00:00 14.7 14 Noroeste 24 Noroeste 0 -- -- 78
2019-11-13 19:00:00 16.1 13 Noroeste 21 Noroeste 0 -- -- 71
2019-11-13 18:00:00 17.5 12 Noroeste 30 Norte 0 -- -- 64
2019-11-13 17:00:00 18.5 19 Noroeste 35 Norte 0 -- -- 61
2019-11-13 16:00:00 19.2 19 Noroeste 30 Oeste 0 -- -- 59
2019-11-13 15:00:00 18.3 18 Noroeste 29 Noroeste 0 -- -- 64
2019-11-13 14:00:00 19 17 Noroeste 30 Noroeste 0 -- -- 62
2019-11-13 13:00:00 17.7 21 Noroeste 32 Noroeste 0 -- -- 69
2019-11-13 12:00:00 16.9 23 Noroeste 35 Noroeste 0 -- -- 72
2019-11-13 11:00:00 16.4 22 Noroeste 31 Norte 0 -- -- 76
2019-11-13 10:00:00 14.6 15 Noroeste 27 Noroeste 0 -- -- 91
2019-11-13 09:00:00 13.6 18 Oeste 32 Oeste 0 -- -- 95
2019-11-13 08:00:00 13.6 26 Oeste 39 Oeste 0 -- -- 93
2019-11-13 07:00:00 13.7 20 Oeste 31 Oeste 0 -- -- 89
2019-11-13 06:00:00 13 9 Sudoeste 16 Oeste 0 -- -- 93
2019-11-13 05:00:00 13 10 Sudoeste 19 Sudoeste 0 -- -- 93
2019-11-13 04:00:00 13.2 13 Oeste 24 Oeste 0 -- -- 91
2019-11-13 03:00:00 13.2 17 Oeste 26 Oeste 0 -- -- 90
2019-11-13 02:00:00 13.2 15 Oeste 26 Oeste 0 -- -- 90
2019-11-13 01:00:00 13.2 16 Oeste 24 Oeste 0 -- -- 88
2019-11-13 00:00:00 13 10 Oeste 23 Noroeste 0 -- -- 88
2019-11-12 23:00:00 13.2 8 Oeste 22 Oeste 0 -- -- 84
2019-11-12 22:00:00 13.5 15 Oeste 27 Oeste 0 -- -- 83
2019-11-12 21:00:00 13.9 15 Oeste 23 Noroeste 0 -- -- 78
2019-11-12 20:00:00 14.2 13 Noroeste 19 Noroeste 0 -- -- 74
2019-11-12 19:00:00 14.4 8 Noroeste 42 Norte 0 -- -- 70
2019-11-12 18:00:00 15.2 13 Noroeste 27 Noroeste 0 -- -- 65
2019-11-12 17:00:00 16.8 19 Noroeste 30 Norte 0 -- -- 57
2019-11-12 16:00:00 17.4 18 Noroeste 29 Noroeste 0 -- -- 50
2019-11-12 15:00:00 17.3 15 Norte 34 Noroeste 0 -- -- 46
2019-11-12 14:00:00 16.4 17 Noroeste 29 Norte 0 -- -- 50
2019-11-12 13:00:00 15.4 16 Norte 27 Norte 0 -- -- 56
2019-11-12 12:00:00 13.2 15 Norte 23 Norte 0 -- -- 67
2019-11-12 11:00:00 11 11 Norte 17 Norte 0 -- -- 83
2019-11-12 10:00:00 9.5 8 Norte 14 Norte 0 -- -- 97
2019-11-12 09:00:00 7.9 6 Norte 9 Norte 0 -- -- 99
2019-11-12 08:00:00 7.1 2 Nordeste 5 Norte 0 -- -- 97
2019-11-12 07:00:00 7.6 4 Nordeste 5 Norte 0 -- -- 97
2019-11-12 06:00:00 8 0 Calma 6 Noroeste 0 -- -- 97
2019-11-12 05:00:00 7.4 2 Noroeste 4 Norte 0 -- -- 96
2019-11-12 04:00:00 8.1 3 Noroeste 5 Norte 0 -- -- 96
2019-11-12 03:00:00 8.5 3 Nordeste 8 Noroeste 0 -- -- 94
2019-11-12 02:00:00 9.1 2 Nordeste 10 Norte 0 -- -- 94
2019-11-12 01:00:00 9.8 4 Noroeste 9 Norte 0 -- -- 92
2019-11-12 00:00:00 10.6 7 Norte 20 Norte 0 -- -- 90
2019-11-11 23:00:00 11.1 13 Norte 20 Norte 0 -- -- 87
2019-11-11 22:00:00 11.7 13 Norte 29 Norte 0 -- -- 83
2019-11-11 21:00:00 12.6 18 Norte 30 Norte 0 -- -- 78
2019-11-11 20:00:00 13.6 23 Norte 32 Norte 0 -- -- 75
2019-11-11 19:00:00 15.5 12 Norte 31 Norte 0 -- -- 72
2019-11-11 18:00:00 17.3 13 Norte 32 Norte 0 -- -- 67
2019-11-11 17:00:00 18.5 21 Norte 31 Norte 0 -- -- 67
2019-11-11 16:00:00 18.8 21 Noroeste 30 Noroeste 0 -- -- 74
2019-11-11 15:00:00 17.2 18 Noroeste 28 Noroeste 0 -- -- 82
2019-11-11 14:00:00 16.7 19 Norte 30 Noroeste 0 -- -- 85
2019-11-11 13:00:00 16.1 16 Norte 27 Norte 0 -- -- 88
2019-11-11 12:00:00 15.5 12 Noroeste 20 Noroeste 0 -- -- 96
2019-11-11 11:00:00 13.9 6 Noroeste 9 Noroeste 0 -- -- 98
2019-11-11 10:00:00 12.7 3 Sudoeste 4 Sudoeste 0 -- -- 98
2019-11-11 09:00:00 11.8 2 Sudoeste 4 Sudoeste 0 -- -- 98
2019-11-11 08:00:00 11.4 2 Sudoeste 4 Sudeste 0 -- -- 98
2019-11-11 07:00:00 11.1 3 Sudeste 6 Sudeste 0 -- -- 97
2019-11-11 06:00:00 11 0 Calma 4 Sur 0 -- -- 97
2019-11-11 05:00:00 10.8 2 Sudoeste 8 Sudeste 0 -- -- 97
2019-11-11 04:00:00 10.6 3 Sur 6 Sur 0 -- -- 96
2019-11-11 03:00:00 10.6 2 Sur 5 Sudoeste 0 -- -- 96
2019-11-11 02:00:00 10.4 0 Calma 7 Oeste 1 -- -- 95
2019-11-11 01:00:00 10.4 4 Oeste 18 Noroeste 0.6 -- -- 94
2019-11-11 00:00:00 11.2 12 Noroeste 23 Noroeste 0 -- -- 87
2019-11-10 23:00:00 11.2 16 Noroeste 25 Noroeste 0 -- -- 84
2019-11-10 22:00:00 11.2 13 Noroeste 21 Noroeste 0 -- -- 83
2019-11-10 21:00:00 11.5 12 Noroeste 23 Noroeste 0 -- -- 84
2019-11-10 20:00:00 11.8 15 Noroeste 23 Noroeste 0 -- -- 83
2019-11-10 19:00:00 12.2 15 Noroeste 33 Norte 0 -- -- 78
2019-11-10 18:00:00 12.8 21 Norte 33 Noroeste 0 -- -- 71
2019-11-10 17:00:00 13.2 19 Norte 32 Noroeste 0 -- -- 69
2019-11-10 16:00:00 13.4 19 Noroeste 40 Noroeste 0 -- -- 71
2019-11-10 15:00:00 14.5 27 Norte 40 Noroeste 0 -- -- 59
2019-11-10 14:00:00 15.3 27 Norte 41 Norte 0 -- -- 54
2019-11-10 13:00:00 15.6 28 Norte 41 Norte 0 -- -- 50
2019-11-10 12:00:00 13.9 22 Norte 35 Norte 0 -- -- 60
2019-11-10 11:00:00 12.5 21 Norte 37 Noroeste 0 -- -- 69
2019-11-10 10:00:00 11.4 15 Norte 28 Norte 0 -- -- 76
2019-11-10 09:00:00 10 15 Norte 24 Norte 0 -- -- 83
2019-11-10 08:00:00 9.5 13 Norte 28 Norte 0 -- -- 89
2019-11-10 07:00:00 10.1 17 Norte 32 Norte 0 -- -- 85
2019-11-10 06:00:00 10.3 21 Norte 37 Norte 0 -- -- 82
2019-11-10 05:00:00 9.8 12 Noroeste 26 Noroeste 0 -- -- 91
2019-11-10 04:00:00 10.3 14 Norte 23 Noroeste 0 -- -- 88
2019-11-10 03:00:00 9.9 9 Norte 21 Norte 0 -- -- 89
2019-11-10 02:00:00 9.4 4 Oeste 10 Noroeste 0 -- -- 87
2019-11-10 01:00:00 9.7 3 Norte 18 Noroeste 0 -- -- 88
2019-11-10 00:00:00 10.4 12 Noroeste 27 Noroeste 0 -- -- 86
2019-11-09 23:00:00 11.2 14 Noroeste 30 Noroeste 0 -- -- 86
2019-11-09 22:00:00 13.1 11 Noroeste 27 Oeste 0 -- -- 96
2019-11-09 21:00:00 13 10 Oeste 22 Oeste 0 -- -- 95
2019-11-09 20:00:00 13.3 17 Oeste 30 Oeste 0 -- -- 91
2019-11-09 19:00:00 14.3 17 Oeste 36 Oeste 0 -- -- 82
2019-11-09 18:00:00 15.3 19 Oeste 33 Oeste 0 -- -- 72
2019-11-09 17:00:00 15.1 13 Oeste 28 Oeste 0 -- -- 71
2019-11-09 16:00:00 15.5 17 Oeste 28 Noroeste 0 -- -- 66
2019-11-09 15:00:00 15.5 17 Oeste 26 Oeste 0 -- -- 63
2019-11-09 14:00:00 15.3 11 Noroeste 36 Norte 0 -- -- 62
2019-11-09 13:00:00 15.2 14 Noroeste 24 Noroeste 0 -- -- 59
2019-11-09 12:00:00 12.6 7 Oeste 13 Sudoeste 0 -- -- 70
2019-11-09 11:00:00 10.5 5 Oeste 9 Oeste 0 -- -- 77
2019-11-09 10:00:00 8.3 3 Sudoeste 5 Sur 0 -- -- 85
2019-11-09 09:00:00 5.4 2 Sudeste 4 Sudeste 0 -- -- 93
2019-11-09 08:00:00 4.4 0 Calma 4 Norte 0 -- -- 92
2019-11-09 07:00:00 5.7 4 Nordeste 7 Norte 0 -- -- 89
2019-11-09 06:00:00 5.5 4 Norte 5 Norte 0 -- -- 91
2019-11-09 05:00:00 4.8 0 Calma 6 Sudeste 0 -- -- 91
2019-11-09 04:00:00 5.9 4 Norte 5 Noroeste 0 -- -- 87
2019-11-09 03:00:00 5.8 0 Calma 5 Norte 0 -- -- 87
2019-11-09 02:00:00 6.7 0 Calma 10 Norte 0 -- -- 82
2019-11-09 01:00:00 7 2 Nordeste 5 Norte 0 -- -- 82
2019-11-09 00:00:00 8.1 2 Nordeste 9 Norte 0 -- -- 77
2019-11-08 23:00:00 8.8 3 Nordeste 16 Norte 0 -- -- 73
2019-11-08 22:00:00 9.9 12 Norte 18 Norte 0 -- -- 68
2019-11-08 21:00:00 10.7 14 Norte 22 Norte 0 -- -- 64
2019-11-08 20:00:00 11.5 12 Norte 24 Noroeste 0 -- -- 60
2019-11-08 19:00:00 12.4 15 Norte 28 Norte 0 -- -- 56
2019-11-08 18:00:00 14.4 15 Norte 28 Norte 0 -- -- 49
2019-11-08 17:00:00 15.8 17 Norte 33 Noroeste 0 -- -- 43
2019-11-08 16:00:00 16 17 Noroeste 30 Norte 0 -- -- 43
2019-11-08 15:00:00 15.6 19 Norte 30 Norte 0 -- -- 43
2019-11-08 14:00:00 15.3 18 Norte 31 Norte 0 -- -- 45
2019-11-08 13:00:00 14.6 22 Norte 38 Noroeste 0 -- -- 46
2019-11-08 12:00:00 13.5 18 Norte 30 Norte 0 -- -- 54
2019-11-08 11:00:00 11.8 20 Norte 31 Norte 0 -- -- 62
2019-11-08 10:00:00 10.3 15 Noroeste 24 Noroeste 0 -- -- 75
2019-11-08 09:00:00 8.8 8 Noroeste 13 Noroeste 0 -- -- 87
2019-11-08 08:00:00 8.6 10 Noroeste 23 Noroeste 0 -- -- 87
2019-11-08 07:00:00 9.4 15 Noroeste 23 Noroeste 0 -- -- 88
2019-11-08 06:00:00 9.7 13 Noroeste 21 Noroeste 0 -- -- 89
2019-11-08 05:00:00 9.6 8 Noroeste 12 Noroeste 0 -- -- 91
2019-11-08 04:00:00 9.6 7 Noroeste 17 Noroeste 0 -- -- 91
2019-11-08 03:00:00 9.7 9 Noroeste 15 Noroeste 0 -- -- 91
2019-11-08 02:00:00 10 8 Noroeste 18 Noroeste 0 -- -- 89
2019-11-08 01:00:00 10.9 9 Noroeste 18 Noroeste 0 -- -- 82
2019-11-08 00:00:00 10.7 8 Noroeste 15 Noroeste 0 -- -- 81
2019-11-07 23:00:00 10.8 8 Noroeste 19 Noroeste 0 -- -- 78
2019-11-07 22:00:00 11 10 Noroeste 31 Noroeste 0 -- -- 74
2019-11-07 21:00:00 12.1 16 Noroeste 33 Noroeste 0 -- -- 69
2019-11-07 20:00:00 12.8 25 Noroeste 36 Noroeste 0 -- -- 62
2019-11-07 19:00:00 12.9 10 Noroeste 40 Noroeste 0 -- -- 58
2019-11-07 18:00:00 14.6 22 Noroeste 36 Noroeste 0 -- -- 53
2019-11-07 17:00:00 16.3 23 Noroeste 40 Noroeste 0 -- -- 46
2019-11-07 16:00:00 16.7 23 Norte 40 Norte 0 -- -- 48
2019-11-07 15:00:00 16.8 28 Norte 41 Noroeste 0 -- -- 51
2019-11-07 14:00:00 15.9 23 Norte 40 Noroeste 0 -- -- 58
2019-11-07 13:00:00 16.3 22 Norte 40 Noroeste 0 -- -- 54
2019-11-07 12:00:00 14.8 21 Norte 39 Noroeste 0 -- -- 64
2019-11-07 11:00:00 14.2 18 Norte 29 Norte 0 -- -- 70
2019-11-07 10:00:00 12.9 17 Norte 25 Norte 0 -- -- 79
2019-11-07 09:00:00 12.1 12 Norte 28 Norte 0 -- -- 85
2019-11-07 08:00:00 12.9 15 Norte 31 Norte 0 -- -- 96
2019-11-07 07:00:00 13.9 10 Noroeste 24 Noroeste 1 -- -- 98
2019-11-07 06:00:00 13.5 8 Oeste 18 Sudoeste 0.4 -- -- 98
2019-11-07 05:00:00 13.5 11 Sudoeste 21 Oeste 0 -- -- 98
2019-11-07 04:00:00 13 13 Sudoeste 19 Sudoeste 0.2 -- -- 97
2019-11-07 03:00:00 12.7 13 Sudoeste 19 Sudoeste 0.2 -- -- 96
2019-11-07 02:00:00 12.4 8 Sudoeste 12 Sudoeste 0 -- -- 95
2019-11-07 01:00:00 12.1 5 Sudoeste 8 Sudoeste 0 -- -- 92
2019-11-07 00:00:00 12.2 4 Sudoeste 9 Oeste 0 -- -- 91
2019-11-06 23:00:00 12.6 4 Sudoeste 14 Oeste 0 -- -- 89
2019-11-06 22:00:00 13 6 Oeste 13 Oeste 0 -- -- 88
2019-11-06 21:00:00 13.8 11 Oeste 22 Noroeste 0 -- -- 85
2019-11-06 20:00:00 14.6 11 Noroeste 22 Noroeste 0 -- -- 78
2019-11-06 19:00:00 14.9 12 Noroeste 20 Noroeste 0 -- -- 72
2019-11-06 18:00:00 15.6 11 Noroeste 22 Noroeste 0 -- -- 69
2019-11-06 17:00:00 16.1 13 Noroeste 24 Noroeste 0 -- -- 67
2019-11-06 16:00:00 16.2 17 Noroeste 30 Noroeste 0 -- -- 64
2019-11-06 15:00:00 17.8 17 Noroeste 30 Noroeste 0 -- -- 57
2019-11-06 14:00:00 17.5 19 Noroeste 29 Noroeste 0 -- -- 59
2019-11-06 13:00:00 16 19 Noroeste 31 Noroeste 0 -- -- 65
2019-11-06 12:00:00 15.3 14 Noroeste 22 Noroeste 0 -- -- 68
2019-11-06 11:00:00 13 8 Noroeste 13 Norte 0 -- -- 87
2019-11-06 10:00:00 10.6 2 Noroeste 6 Norte 0 -- -- 98
2019-11-06 09:00:00 8.4 0 Calma 2 Oeste 0 -- -- 98
2019-11-06 08:00:00 7.5 0 Calma 4 Este 0 -- -- 97
2019-11-06 07:00:00 7.6 0 Calma 3 Sudeste 0 -- -- 96
2019-11-06 06:00:00 8.1 0 Calma 2 Sur 0 -- -- 96
2019-11-06 05:00:00 8.3 2 Sudeste 7 Sudeste 0 -- -- 95
2019-11-06 04:00:00 9 3 Este 12 Noroeste 0 -- -- 94
2019-11-06 03:00:00 9.5 6 Noroeste 12 Noroeste 0 -- -- 94
2019-11-06 02:00:00 9 3 Sudoeste 6 Noroeste 0 -- -- 93
2019-11-06 01:00:00 9.6 2 Noroeste 9 Norte 0 -- -- 89
2019-11-06 00:00:00 10.7 6 Nordeste 14 Norte 0 -- -- 87